createdAt,value
2023-05-23T00:00:33.563Z,8.10
2023-05-23T00:01:36.441Z,7.20
2023-05-23T00:02:38.852Z,7.60
2023-05-23T00:03:41.406Z,6.80
2023-05-23T00:04:43.647Z,7.60
2023-05-23T00:05:45.796Z,6.70
2023-05-23T00:06:48.116Z,7.30
2023-05-23T00:07:50.405Z,6.30
2023-05-23T00:08:52.669Z,7.80
2023-05-23T00:09:54.966Z,5.90
2023-05-23T00:10:57.359Z,6.30
2023-05-23T00:11:59.829Z,6.60
2023-05-23T00:13:02.091Z,5.60
2023-05-23T00:14:04.336Z,6.20
2023-05-23T00:15:07.536Z,5.10
2023-05-23T00:16:10.615Z,6.90
2023-05-23T00:17:13.070Z,6.40
2023-05-23T00:18:15.348Z,6.90
2023-05-23T00:19:17.747Z,7.60
2023-05-23T00:20:19.981Z,5.90
2023-05-23T00:21:22.452Z,7.10
2023-05-23T00:22:25.034Z,6.50
2023-05-23T00:23:27.445Z,5.70
2023-05-23T00:24:29.672Z,5.10
2023-05-23T00:25:31.975Z,6.30
2023-05-23T00:26:34.551Z,6.20
2023-05-23T00:27:37.170Z,5.80
2023-05-23T00:28:40.032Z,5.90
2023-05-23T00:29:42.441Z,6.00
2023-05-23T00:30:44.995Z,6.20
2023-05-23T00:31:47.552Z,5.00
2023-05-23T00:32:49.908Z,6.40
2023-05-23T00:33:51.945Z,6.90
2023-05-23T00:34:54.141Z,6.67
2023-05-23T00:35:56.303Z,5.50
2023-05-23T00:36:58.603Z,5.00
2023-05-23T00:38:00.945Z,6.00
2023-05-23T00:39:03.488Z,4.90
2023-05-23T00:40:07.902Z,2.00
2023-05-23T00:41:10.239Z,6.60
2023-05-23T00:42:12.428Z,5.00
2023-05-23T00:43:14.692Z,6.60
2023-05-23T00:44:16.903Z,5.30
2023-05-23T00:45:19.373Z,6.10
2023-05-23T00:46:22.329Z,6.40
2023-05-23T00:47:24.693Z,4.73
2023-05-23T00:48:27.970Z,6.40
2023-05-23T00:49:30.839Z,5.20
2023-05-23T00:50:33.470Z,5.82
2023-05-23T00:51:35.868Z,5.10
2023-05-23T00:52:38.851Z,6.60
2023-05-23T00:53:42.197Z,5.45
2023-05-23T00:54:44.735Z,5.80
2023-05-23T00:55:47.518Z,5.30
2023-05-23T00:56:50.115Z,5.64
2023-05-23T00:57:54.299Z,5.00
2023-05-23T00:58:57.447Z,5.60
2023-05-23T01:00:01.229Z,6.10
2023-05-23T01:01:03.845Z,6.60
2023-05-23T01:02:06.878Z,6.60
2023-05-23T01:03:09.323Z,4.90
2023-05-23T01:04:12.433Z,7.00
2023-05-23T01:05:16.011Z,5.80
2023-05-23T01:06:20.061Z,6.30
2023-05-23T01:07:22.358Z,4.90
2023-05-23T01:08:24.656Z,7.10
2023-05-23T01:09:29.171Z,6.60
2023-05-23T01:10:31.866Z,5.90
2023-05-23T01:12:53.232Z,8.30
2023-05-23T01:13:59.139Z,6.00
2023-05-23T01:15:08.017Z,4.70
2023-05-23T01:16:14.130Z,6.00
2023-05-23T01:18:41.036Z,6.10
2023-05-23T01:19:53.277Z,5.20
2023-05-23T01:21:05.334Z,5.60
2023-05-23T01:23:28.788Z,4.80
2023-05-23T01:24:40.595Z,5.70
2023-05-23T01:25:49.533Z,5.10
2023-05-23T01:27:01.408Z,5.20
2023-05-23T01:28:07.498Z,5.10
2023-05-23T01:29:13.516Z,5.00
2023-05-23T01:30:18.913Z,5.20
2023-05-23T01:31:25.312Z,4.90
2023-05-23T01:32:28.943Z,5.60
2023-05-23T01:33:32.114Z,3.90
2023-05-23T01:34:36.727Z,4.20
2023-05-23T01:35:40.178Z,4.60
2023-05-23T01:36:43.511Z,4.40
2023-05-23T01:37:45.779Z,5.00
2023-05-23T01:38:47.991Z,4.00
2023-05-23T01:39:50.389Z,4.80
2023-05-23T01:40:53.756Z,3.60
2023-05-23T01:41:56.029Z,5.27
2023-05-23T01:42:58.870Z,5.00
2023-05-23T01:44:03.976Z,4.20
2023-05-23T01:45:07.360Z,3.60
2023-05-23T01:46:11.088Z,3.70
2023-05-23T01:47:15.070Z,5.20
2023-05-23T01:48:18.493Z,3.00
2023-05-23T01:49:23.586Z,4.10
2023-05-23T01:50:28.682Z,4.00
2023-05-23T01:51:31.393Z,4.80
2023-05-23T01:52:34.841Z,4.90
2023-05-23T01:53:37.252Z,4.00
2023-05-23T01:54:40.631Z,4.50
2023-05-23T01:55:43.325Z,3.40
2023-05-23T01:56:48.179Z,3.90
2023-05-23T01:57:51.920Z,5.10
2023-05-23T01:58:54.687Z,5.30
2023-05-23T01:59:57.529Z,5.64
2023-05-23T02:01:00.942Z,4.30
2023-05-23T02:02:03.839Z,3.50
2023-05-23T02:03:07.630Z,4.82
2023-05-23T02:04:10.279Z,4.80
2023-05-23T02:05:12.544Z,6.20
2023-05-23T02:06:15.197Z,4.90
2023-05-23T02:07:17.360Z,5.80
2023-05-23T02:08:21.480Z,5.90
2023-05-23T02:09:23.697Z,4.70
2023-05-23T02:10:26.129Z,4.50
2023-05-23T02:11:28.499Z,6.90
2023-05-23T02:12:31.280Z,5.80
2023-05-23T02:13:34.424Z,6.00
2023-05-23T02:14:37.058Z,5.18
2023-05-23T02:15:40.000Z,5.20
2023-05-23T02:16:42.610Z,7.00
2023-05-23T02:17:45.042Z,5.00
2023-05-23T02:18:47.353Z,4.50
2023-05-23T02:19:50.023Z,4.70
2023-05-23T02:20:52.355Z,4.70
2023-05-23T02:21:54.714Z,5.60
2023-05-23T02:22:57.260Z,5.60
2023-05-23T02:23:59.437Z,4.00
2023-05-23T02:25:01.955Z,4.80
2023-05-23T02:26:04.298Z,5.20
2023-05-23T02:27:06.731Z,5.20
2023-05-23T02:28:09.110Z,5.70
2023-05-23T02:29:11.988Z,5.90
2023-05-23T02:30:14.740Z,5.70
2023-05-23T02:31:17.341Z,5.60
2023-05-23T02:32:19.738Z,6.60
2023-05-23T02:33:22.050Z,5.60
2023-05-23T02:34:25.532Z,6.30
2023-05-23T02:35:27.910Z,5.90
2023-05-23T02:36:30.461Z,5.40
2023-05-23T02:37:32.785Z,7.00
2023-05-23T02:38:35.212Z,8.50
2023-05-23T02:39:37.508Z,8.40
2023-05-23T02:40:40.168Z,7.00
2023-05-23T02:41:42.367Z,7.30
2023-05-23T02:42:45.105Z,8.00
2023-05-23T02:43:47.419Z,7.18
2023-05-23T02:44:50.836Z,6.30
2023-05-23T02:45:53.236Z,6.90
2023-05-23T02:46:55.356Z,6.80
2023-05-23T02:47:57.789Z,6.50
2023-05-23T02:49:00.791Z,5.80
2023-05-23T02:50:02.998Z,6.60
2023-05-23T02:51:05.737Z,4.80
2023-05-23T02:52:08.093Z,5.70
2023-05-23T02:53:10.717Z,7.40
2023-05-23T02:54:12.925Z,5.70
2023-05-23T02:55:15.243Z,6.30
2023-05-23T02:56:20.245Z,6.50
2023-05-23T02:57:22.609Z,7.00
2023-05-23T02:58:24.816Z,5.20
2023-05-23T02:59:27.207Z,4.70
2023-05-23T03:00:29.677Z,6.80
2023-05-23T03:01:32.234Z,5.90
2023-05-23T03:02:34.609Z,5.00
2023-05-23T03:03:37.105Z,6.60
2023-05-23T03:04:39.746Z,5.80
2023-05-23T03:05:42.547Z,4.80
2023-05-23T03:06:45.378Z,5.40
2023-05-23T03:07:47.777Z,5.30
2023-05-23T03:08:50.302Z,6.40
2023-05-23T03:09:52.887Z,5.50
2023-05-23T03:10:55.536Z,7.00
2023-05-23T03:11:58.522Z,6.00
2023-05-23T03:13:00.869Z,5.45
2023-05-23T03:14:03.455Z,5.50
2023-05-23T03:15:06.394Z,5.60
2023-05-23T03:16:10.621Z,6.00
2023-05-23T03:17:13.630Z,6.60
2023-05-23T03:18:16.135Z,6.50
2023-05-23T03:19:18.487Z,5.60
2023-05-23T03:20:21.533Z,7.09
2023-05-23T03:21:24.860Z,6.00
2023-05-23T03:22:27.309Z,5.20
2023-05-23T03:23:29.757Z,5.80
2023-05-23T03:24:31.999Z,5.80
2023-05-23T03:25:34.326Z,5.10
2023-05-23T03:26:36.731Z,6.10
2023-05-23T03:27:38.844Z,1.20
2023-05-23T03:28:41.944Z,0.20
2023-05-23T03:29:44.180Z,5.20
2023-05-23T03:30:46.977Z,5.50
2023-05-23T03:31:49.485Z,6.00
2023-05-23T03:32:51.722Z,7.40
2023-05-23T03:33:53.892Z,5.80
2023-05-23T03:34:56.404Z,5.60
2023-05-23T03:35:58.701Z,5.60
2023-05-23T03:37:01.246Z,6.50
2023-05-23T03:38:03.766Z,6.40
2023-05-23T03:39:06.234Z,5.60
2023-05-23T03:40:10.230Z,7.20
2023-05-23T03:41:13.565Z,5.20
2023-05-23T03:42:17.060Z,6.00
2023-05-23T03:43:19.925Z,6.20
2023-05-23T03:44:23.677Z,6.10
2023-05-23T03:45:25.952Z,6.70
2023-05-23T03:46:28.905Z,5.90
2023-05-23T03:47:31.328Z,6.30
2023-05-23T03:48:35.795Z,7.00
2023-05-23T03:49:38.252Z,6.80
2023-05-23T03:50:41.105Z,8.10
2023-05-23T03:51:44.249Z,8.90
2023-05-23T03:52:47.330Z,8.30
2023-05-23T03:53:50.087Z,7.60
2023-05-23T03:54:53.444Z,6.00
2023-05-23T03:55:56.615Z,7.82
2023-05-23T03:56:59.097Z,7.60
2023-05-23T03:58:01.580Z,5.00
2023-05-23T03:59:04.564Z,7.00
2023-05-23T04:00:08.531Z,7.10
2023-05-23T04:01:12.911Z,7.80
2023-05-23T04:02:15.503Z,7.50
2023-05-23T04:03:19.869Z,8.45
2023-05-23T04:04:22.628Z,7.70
2023-05-23T04:05:25.028Z,7.90
2023-05-23T04:06:27.524Z,6.40
2023-05-23T04:07:31.133Z,7.00
2023-05-23T04:08:34.180Z,6.30
2023-05-23T04:09:36.650Z,7.90
2023-05-23T04:10:41.706Z,8.00
2023-05-23T04:11:44.277Z,7.90
2023-05-23T04:12:46.510Z,7.20
2023-05-23T04:13:50.600Z,6.70
2023-05-23T04:14:52.828Z,8.10
2023-05-23T04:15:55.261Z,7.30
2023-05-23T04:16:58.329Z,7.80
2023-05-23T04:18:01.002Z,8.45
2023-05-23T04:19:05.555Z,8.60
2023-05-23T04:20:09.346Z,7.20
2023-05-23T04:21:11.698Z,7.50
2023-05-23T04:22:15.792Z,5.10
2023-05-23T04:23:18.873Z,7.73
2023-05-23T04:24:23.112Z,8.10
2023-05-23T04:25:25.332Z,8.70
2023-05-23T04:26:30.001Z,9.80
2023-05-23T04:27:32.442Z,9.18
2023-05-23T04:28:34.920Z,13.00
2023-05-23T04:29:37.059Z,11.40
2023-05-23T04:30:39.824Z,15.60
2023-05-23T04:31:42.795Z,14.64
2023-05-23T04:32:45.837Z,17.50
2023-05-23T04:33:48.870Z,20.50
2023-05-23T04:34:51.559Z,20.82
2023-05-23T04:35:54.536Z,18.00
2023-05-23T04:36:57.419Z,17.10
2023-05-23T04:38:00.662Z,12.10
2023-05-23T04:39:07.373Z,9.70
2023-05-23T04:40:12.619Z,9.00
2023-05-23T04:41:19.750Z,8.40
2023-05-23T04:42:24.054Z,9.00
2023-05-23T04:43:31.620Z,7.90
2023-05-23T04:44:36.054Z,8.90
2023-05-23T04:45:40.304Z,8.20
2023-05-23T04:47:02.687Z,8.10
2023-05-23T04:48:07.302Z,8.90
2023-05-23T04:49:14.045Z,11.80
2023-05-23T04:50:16.923Z,10.45
2023-05-23T04:51:20.581Z,15.00
2023-05-23T04:52:27.669Z,16.00
2023-05-23T04:53:30.350Z,21.50
2023-05-23T04:54:33.518Z,30.18
2023-05-23T04:55:37.912Z,26.80
2023-05-23T04:56:42.674Z,31.40
2023-05-23T04:57:45.827Z,33.10
2023-05-23T04:58:48.596Z,22.00
2023-05-23T04:59:51.341Z,17.40
2023-05-23T05:00:54.754Z,16.30
2023-05-23T05:01:57.007Z,13.20
2023-05-23T05:02:59.703Z,11.60
2023-05-23T05:04:04.342Z,11.10
2023-05-23T05:05:07.192Z,11.18
2023-05-23T05:06:11.143Z,10.20
2023-05-23T05:07:13.442Z,11.91
2023-05-23T05:08:15.934Z,10.20
2023-05-23T05:09:18.498Z,10.50
2023-05-23T05:10:21.945Z,10.20
2023-05-23T05:11:25.690Z,11.20
2023-05-23T05:12:30.755Z,11.50
2023-05-23T05:13:33.464Z,11.80
2023-05-23T05:14:36.415Z,11.70
2023-05-23T05:15:38.689Z,9.45
2023-05-23T05:16:41.709Z,10.80
2023-05-23T05:17:45.099Z,13.91
2023-05-23T05:18:50.394Z,12.90
2023-05-23T05:19:54.370Z,11.50
2023-05-23T05:20:57.759Z,14.00
2023-05-23T05:22:00.699Z,13.90
2023-05-23T05:23:03.068Z,11.18
2023-05-23T05:24:05.798Z,12.80
2023-05-23T05:25:09.424Z,11.80
2023-05-23T05:26:12.218Z,10.36
2023-05-23T05:27:14.613Z,9.20
2023-05-23T05:28:16.865Z,7.60
2023-05-23T05:29:21.376Z,7.00
2023-05-23T05:30:23.774Z,8.20
2023-05-23T05:31:27.940Z,8.70
2023-05-23T05:32:36.755Z,8.80
2023-05-23T05:33:39.068Z,7.50
2023-05-23T05:34:49.093Z,9.40
2023-05-23T05:35:51.153Z,10.30
2023-05-23T05:36:53.621Z,11.27
2023-05-23T05:37:55.908Z,11.40
2023-05-23T05:38:58.987Z,10.45
2023-05-23T05:40:01.745Z,13.50
2023-05-23T05:41:08.156Z,10.70
2023-05-23T05:42:12.585Z,13.40
2023-05-23T05:43:15.661Z,9.82
2023-05-23T05:44:18.377Z,10.60
2023-05-23T05:45:21.315Z,11.30
2023-05-23T05:46:24.686Z,13.20
2023-05-23T05:47:28.414Z,12.10
2023-05-23T05:48:31.041Z,11.30
2023-05-23T05:49:35.145Z,12.60
2023-05-23T05:50:37.813Z,10.10
2023-05-23T05:51:40.693Z,10.73
2023-05-23T05:52:43.001Z,11.60
2023-05-23T05:53:45.588Z,10.20
2023-05-23T05:54:48.323Z,10.00
2023-05-23T05:55:50.674Z,10.90
2023-05-23T05:56:55.078Z,10.20
2023-05-23T05:57:57.541Z,9.10
2023-05-23T05:59:01.110Z,9.80
2023-05-23T06:01:15.251Z,6.60
2023-05-23T06:02:17.745Z,9.60
2023-05-23T06:03:20.413Z,9.40
2023-05-23T06:04:31.002Z,8.20
2023-05-23T06:05:33.777Z,8.90
2023-05-23T06:06:36.188Z,8.30
2023-05-23T06:08:54.503Z,9.00
2023-05-23T06:09:57.036Z,7.80
2023-05-23T06:10:59.578Z,9.00
2023-05-23T06:12:02.336Z,7.60
2023-05-23T06:13:04.725Z,8.00
2023-05-23T06:14:08.504Z,7.60
2023-05-23T06:15:12.939Z,8.50
2023-05-23T06:16:16.150Z,7.80
2023-05-23T06:17:19.830Z,7.80
2023-05-23T06:18:22.483Z,8.90
2023-05-23T06:19:25.780Z,6.80
2023-05-23T06:20:30.388Z,7.30
2023-05-23T06:21:34.254Z,7.70
2023-05-23T06:22:37.044Z,7.27
2023-05-23T06:23:41.021Z,7.73
2023-05-23T06:24:44.946Z,6.80
2023-05-23T06:25:48.426Z,8.60
2023-05-23T06:26:50.778Z,6.80
2023-05-23T06:27:53.161Z,10.20
2023-05-23T06:28:55.331Z,8.50
2023-05-23T06:29:57.554Z,7.10
2023-05-23T06:31:00.008Z,7.20
2023-05-23T06:32:02.558Z,6.00
2023-05-23T06:33:06.586Z,7.20
2023-05-23T06:34:08.814Z,6.70
2023-05-23T06:35:11.126Z,5.00
2023-05-23T06:36:13.548Z,7.40
2023-05-23T06:37:15.600Z,6.20
2023-05-23T06:38:17.947Z,6.40
2023-05-23T06:39:20.429Z,6.20
2023-05-23T06:40:22.848Z,5.50
2023-05-23T06:41:25.449Z,6.00
2023-05-23T06:42:28.738Z,7.00
2023-05-23T06:43:32.766Z,7.40
2023-05-23T06:44:55.243Z,6.20
2023-05-23T06:45:57.729Z,6.00
2023-05-23T06:47:01.162Z,5.90
2023-05-23T06:48:04.270Z,7.45
2023-05-23T06:50:11.946Z,5.40
2023-05-23T06:51:14.248Z,5.20
2023-05-23T06:52:16.823Z,6.20
2023-05-23T06:53:19.483Z,4.90
2023-05-23T06:54:22.677Z,6.10
2023-05-23T06:55:25.357Z,5.70
2023-05-23T06:56:27.742Z,6.90
2023-05-23T06:57:31.963Z,4.40
2023-05-23T06:58:34.350Z,5.60
2023-05-23T06:59:36.638Z,4.80
2023-05-23T07:00:40.342Z,5.50
2023-05-23T07:01:44.860Z,5.50
2023-05-23T07:02:48.228Z,5.00
2023-05-23T07:03:51.518Z,4.82
2023-05-23T07:04:53.924Z,4.50
2023-05-23T07:05:58.551Z,4.60
2023-05-23T07:07:02.564Z,5.50
2023-05-23T07:08:05.265Z,5.90
2023-05-23T07:09:07.581Z,4.70
2023-05-23T07:10:11.702Z,4.60
2023-05-23T07:11:13.833Z,4.70
2023-05-23T07:12:18.187Z,5.00
2023-05-23T07:13:22.317Z,5.10
2023-05-23T07:14:24.411Z,4.50
2023-05-23T07:15:28.809Z,5.30
2023-05-23T07:16:33.539Z,5.30
2023-05-23T07:17:38.442Z,5.00
2023-05-23T07:18:41.543Z,5.10
2023-05-23T07:19:45.667Z,5.10
2023-05-23T07:20:48.406Z,5.60
2023-05-23T07:21:52.497Z,5.00
2023-05-23T07:22:55.148Z,5.00
2023-05-23T07:23:57.498Z,5.90
2023-05-23T07:25:00.409Z,4.90
2023-05-23T07:26:04.725Z,5.80
2023-05-23T07:27:08.770Z,5.80
2023-05-23T07:28:12.440Z,5.10
2023-05-23T07:29:14.866Z,4.10
2023-05-23T07:30:18.768Z,4.50
2023-05-23T07:31:21.406Z,3.40
2023-05-23T07:32:24.103Z,3.82
2023-05-23T07:33:26.838Z,4.50
2023-05-23T07:34:31.424Z,3.10
2023-05-23T07:35:35.740Z,4.10
2023-05-23T07:36:39.256Z,5.00
2023-05-23T07:37:42.328Z,2.90
2023-05-23T07:38:45.123Z,4.60
2023-05-23T07:39:47.556Z,4.36
2023-05-23T07:41:02.671Z,3.70
2023-05-23T07:41:54.853Z,2.10
2023-05-23T07:42:57.380Z,2.90
2023-05-23T07:43:59.710Z,3.20
2023-05-23T07:45:02.971Z,2.50
2023-05-23T07:46:05.818Z,4.40
2023-05-23T07:47:09.169Z,2.70
2023-05-23T07:48:12.110Z,3.80
2023-05-23T07:49:14.976Z,3.09
2023-05-23T07:50:18.293Z,4.40
2023-05-23T07:51:20.684Z,4.70
2023-05-23T07:52:23.230Z,4.90
2023-05-23T07:53:25.949Z,4.30
2023-05-23T07:54:28.385Z,4.00
2023-05-23T07:55:32.545Z,3.60
2023-05-23T07:56:35.665Z,3.60
2023-05-23T07:57:38.352Z,4.90
2023-05-23T07:58:40.536Z,5.60
2023-05-23T07:59:42.872Z,5.00
2023-05-23T08:00:45.813Z,5.64
2023-05-23T08:01:50.703Z,0.70
2023-05-23T08:02:54.899Z,3.50
2023-05-23T08:04:00.253Z,5.40
2023-05-23T08:05:08.688Z,7.20
2023-05-23T08:06:12.792Z,6.60
2023-05-23T08:07:16.272Z,4.50
2023-05-23T08:08:21.289Z,3.80
2023-05-23T08:09:23.687Z,3.50
2023-05-23T08:10:27.643Z,3.70
2023-05-23T08:11:31.788Z,2.50
2023-05-23T08:12:35.221Z,6.30
2023-05-23T08:13:39.176Z,6.60
2023-05-23T08:16:07.199Z,4.20
2023-05-23T08:17:12.085Z,3.00
2023-05-23T08:18:17.297Z,4.10
2023-05-23T08:19:19.812Z,3.90
2023-05-23T08:20:22.831Z,3.80
2023-05-23T08:21:25.977Z,4.70
2023-05-23T08:22:29.238Z,4.30
2023-05-23T08:23:31.710Z,3.90
2023-05-23T08:24:34.097Z,3.10
2023-05-23T08:25:37.109Z,3.50
2023-05-23T08:26:40.270Z,3.20
2023-05-23T08:27:44.551Z,2.60
2023-05-23T08:28:48.720Z,3.20
2023-05-23T08:29:51.278Z,3.30
2023-05-23T08:30:53.744Z,2.20
2023-05-23T08:31:56.286Z,2.80
2023-05-23T08:32:59.600Z,3.20
2023-05-23T08:34:01.889Z,1.90
2023-05-23T08:35:06.855Z,3.55
2023-05-23T08:36:09.693Z,2.10
2023-05-23T08:37:12.903Z,3.30
2023-05-23T08:38:15.528Z,3.00
2023-05-23T08:39:19.542Z,2.70
2023-05-23T08:40:29.413Z,3.30
2023-05-23T08:41:35.409Z,2.60
2023-05-23T08:42:40.169Z,3.10
2023-05-23T08:43:42.765Z,3.20
2023-05-23T08:44:47.492Z,1.60
2023-05-23T08:45:52.098Z,3.20
2023-05-23T08:46:55.167Z,3.60
2023-05-23T08:48:01.318Z,3.40
2023-05-23T08:49:07.156Z,3.60
2023-05-23T08:50:15.485Z,4.00
2023-05-23T08:51:21.718Z,3.70
2023-05-23T08:52:27.127Z,2.80
2023-05-23T08:53:32.934Z,3.10
2023-05-23T08:54:37.146Z,3.70
2023-05-23T08:55:41.476Z,4.10
2023-05-23T08:56:45.688Z,2.80
2023-05-23T08:57:49.752Z,2.90
2023-05-23T08:59:12.840Z,3.40
2023-05-23T09:00:16.858Z,5.00
2023-05-23T09:01:20.143Z,3.00
2023-05-23T09:02:24.541Z,3.70
2023-05-23T09:03:28.929Z,2.90
2023-05-23T09:04:42.250Z,4.00
2023-05-23T09:05:49.835Z,3.80
2023-05-23T09:06:56.312Z,4.30
2023-05-23T09:07:58.736Z,4.70
2023-05-23T09:09:01.296Z,5.50
2023-05-23T09:10:10.078Z,3.64
2023-05-23T09:11:13.110Z,4.20
2023-05-23T09:12:15.665Z,3.45
2023-05-23T09:13:18.799Z,4.00
2023-05-23T09:14:22.194Z,4.10
2023-05-23T09:15:26.140Z,3.40
2023-05-23T09:16:33.988Z,3.90
2023-05-23T09:17:38.355Z,1.80
2023-05-23T09:18:42.412Z,3.50
2023-05-23T09:19:45.301Z,3.80
2023-05-23T09:21:09.068Z,3.70
2023-05-23T09:22:12.659Z,3.50
2023-05-23T09:23:18.338Z,5.09
2023-05-23T09:24:21.272Z,5.10
2023-05-23T09:25:24.335Z,4.00
2023-05-23T09:26:27.593Z,3.00
2023-05-23T09:27:30.713Z,3.60
2023-05-23T09:28:34.786Z,3.70
2023-05-23T09:29:38.195Z,3.80
2023-05-23T09:30:40.790Z,3.60
2023-05-23T09:31:44.129Z,3.20
2023-05-23T09:32:58.601Z,3.70
2023-05-23T09:34:01.876Z,3.70
2023-05-23T09:35:06.704Z,2.50
2023-05-23T09:36:10.945Z,3.70
2023-05-23T09:37:13.368Z,3.90
2023-05-23T09:38:16.211Z,3.60
2023-05-23T09:39:18.968Z,2.73
2023-05-23T09:40:22.589Z,4.20
2023-05-23T09:41:30.068Z,3.20
2023-05-23T09:42:34.020Z,4.90
2023-05-23T09:43:37.854Z,4.40
2023-05-23T09:44:43.803Z,4.20
2023-05-23T09:45:47.242Z,3.60
2023-05-23T09:46:50.954Z,3.80
2023-05-23T09:47:53.283Z,3.80
2023-05-23T09:48:55.858Z,4.60
2023-05-23T09:49:59.439Z,3.30
2023-05-23T09:51:08.485Z,4.30
2023-05-23T09:52:10.906Z,2.80
2023-05-23T09:53:13.218Z,3.60
2023-05-23T09:54:15.430Z,3.30
2023-05-23T09:55:17.924Z,4.30
2023-05-23T09:56:21.518Z,5.00
2023-05-23T09:57:23.863Z,4.80
2023-05-23T09:58:27.689Z,3.18
2023-05-23T09:59:31.736Z,3.70
2023-05-23T10:00:34.241Z,4.00
2023-05-23T10:01:36.598Z,4.90
2023-05-23T10:03:07.111Z,3.80
2023-05-23T10:04:09.717Z,3.90
2023-05-23T10:05:15.726Z,3.80
2023-05-23T10:06:31.415Z,4.20
2023-05-23T10:07:35.924Z,4.20
2023-05-23T10:08:44.667Z,4.60
2023-05-23T10:09:59.794Z,3.40
2023-05-23T10:11:18.034Z,4.20
2023-05-23T10:12:42.049Z,4.70
2023-05-23T10:13:46.383Z,5.20
2023-05-23T10:14:52.664Z,4.30
2023-05-23T10:16:01.136Z,3.20
2023-05-23T10:18:18.736Z,5.00
2023-05-23T10:19:26.736Z,4.30
2023-05-23T10:23:02.088Z,5.40
2023-05-23T10:24:04.892Z,6.00
2023-05-23T10:25:08.664Z,4.27
2023-05-23T10:26:11.308Z,3.50
2023-05-23T10:27:14.760Z,5.30
2023-05-23T10:28:17.407Z,4.90
2023-05-23T10:29:21.897Z,3.80
2023-05-23T10:30:26.001Z,3.80
2023-05-23T10:31:28.999Z,4.00
2023-05-23T10:32:33.541Z,4.30
2023-05-23T10:33:39.563Z,4.30
2023-05-23T10:36:12.131Z,4.80
2023-05-23T10:37:30.284Z,4.60
2023-05-23T10:38:55.398Z,3.50
2023-05-23T10:40:13.559Z,4.30
2023-05-23T10:41:37.783Z,3.70
2023-05-23T10:43:05.062Z,3.40
2023-05-23T10:45:23.935Z,4.20
2023-05-23T10:46:46.731Z,3.40
2023-05-23T10:47:50.706Z,4.10
2023-05-23T10:48:56.054Z,3.20
2023-05-23T10:49:58.360Z,3.70
2023-05-23T10:51:06.006Z,3.30
2023-05-23T10:52:10.742Z,3.80
2023-05-23T10:53:15.766Z,4.00
2023-05-23T10:54:19.352Z,3.40
2023-05-23T10:55:21.987Z,3.70
2023-05-23T10:56:24.895Z,2.27
2023-05-23T10:57:27.276Z,2.60
2023-05-23T10:58:30.567Z,3.20
2023-05-23T10:59:33.246Z,3.30
2023-05-23T11:00:36.264Z,3.73
2023-05-23T11:01:41.805Z,3.40
2023-05-23T11:02:56.161Z,3.40
2023-05-23T11:04:02.259Z,4.10
2023-05-23T11:05:23.160Z,3.50
2023-05-23T11:06:35.330Z,3.80
2023-05-23T11:07:39.461Z,3.90
2023-05-23T11:08:47.833Z,3.60
2023-05-23T11:10:10.504Z,3.00
2023-05-23T11:11:12.842Z,2.90
2023-05-23T11:12:15.208Z,3.50
2023-05-23T11:13:18.753Z,3.30
2023-05-23T11:14:33.887Z,2.20
2023-05-23T11:15:42.919Z,3.70
2023-05-23T11:16:45.490Z,2.70
2023-05-23T11:17:56.435Z,3.70
2023-05-23T11:20:30.262Z,3.60
2023-05-23T11:21:33.657Z,3.70
2023-05-23T11:22:36.293Z,2.60
2023-05-23T11:23:42.748Z,3.20
2023-05-23T11:24:55.767Z,3.20
2023-05-23T11:25:58.072Z,2.60
2023-05-23T11:27:00.845Z,2.40
2023-05-23T11:28:05.993Z,2.70
2023-05-23T11:29:09.146Z,2.70
2023-05-23T11:30:18.429Z,2.40
2023-05-23T11:31:21.116Z,2.60
2023-05-23T11:32:24.883Z,3.20
2023-05-23T11:33:29.647Z,2.50
2023-05-23T11:34:32.071Z,2.90
2023-05-23T11:35:35.248Z,3.90
2023-05-23T11:36:38.014Z,2.70
2023-05-23T11:37:41.094Z,3.60
2023-05-23T11:38:43.486Z,3.00
2023-05-23T11:39:46.038Z,3.50
2023-05-23T11:40:48.379Z,2.50
2023-05-23T11:42:02.296Z,2.20
2023-05-23T11:44:18.761Z,3.60
2023-05-23T11:45:22.855Z,3.50
2023-05-23T11:46:25.435Z,3.30
2023-05-23T11:47:28.052Z,3.10
2023-05-23T11:48:30.797Z,3.30
2023-05-23T11:49:36.745Z,2.60
2023-05-23T11:50:50.584Z,3.80
2023-05-23T11:51:52.873Z,3.20
2023-05-23T11:52:55.276Z,2.70
2023-05-23T11:54:01.965Z,4.00
2023-05-23T11:55:06.950Z,3.20
2023-05-23T11:56:10.278Z,3.70
2023-05-23T11:57:13.594Z,4.50
2023-05-23T11:58:16.056Z,3.50
2023-05-23T11:59:18.285Z,3.00
2023-05-23T12:00:21.668Z,3.90
2023-05-23T12:01:27.568Z,3.40
2023-05-23T12:02:30.143Z,4.10
2023-05-23T12:03:34.532Z,4.00
2023-05-23T12:04:37.377Z,3.00
2023-05-23T12:05:43.036Z,3.10
2023-05-23T12:06:47.723Z,3.10
2023-05-23T12:07:49.939Z,3.80
2023-05-23T12:08:52.543Z,2.90
2023-05-23T12:09:57.791Z,2.90
2023-05-23T12:11:00.849Z,2.80
2023-05-23T12:12:03.657Z,3.73
2023-05-23T12:13:06.988Z,3.30
2023-05-23T12:14:15.344Z,3.70
2023-05-23T12:15:19.457Z,2.60
2023-05-23T12:16:22.773Z,3.70
2023-05-23T12:17:25.127Z,2.82
2023-05-23T12:18:29.104Z,3.80
2023-05-23T12:19:31.394Z,3.50
2023-05-23T12:20:33.884Z,3.50
2023-05-23T12:21:47.139Z,2.10
2023-05-23T12:22:49.785Z,4.70
2023-05-23T12:23:52.348Z,3.10
2023-05-23T12:24:55.825Z,4.20
2023-05-23T12:25:58.291Z,2.60
2023-05-23T12:27:02.526Z,4.64
2023-05-23T12:28:05.093Z,3.90
2023-05-23T12:29:07.800Z,3.10
2023-05-23T12:31:41.021Z,3.90
2023-05-23T12:32:45.870Z,3.40
2023-05-23T12:33:50.422Z,2.70
2023-05-23T12:34:53.311Z,2.80
2023-05-23T12:35:55.824Z,3.09
2023-05-23T12:37:14.981Z,3.50
2023-05-23T12:38:07.812Z,3.30
2023-05-23T12:39:10.047Z,2.30
2023-05-23T12:40:15.992Z,2.73
2023-05-23T12:41:20.215Z,4.00
2023-05-23T12:42:22.781Z,3.00
2023-05-23T12:43:25.017Z,3.10
2023-05-23T12:44:30.432Z,3.10
2023-05-23T12:46:43.885Z,3.40
2023-05-23T12:47:46.669Z,4.30
2023-05-23T12:48:49.668Z,3.60
2023-05-23T12:49:52.423Z,3.82
2023-05-23T12:50:54.815Z,4.00
2023-05-23T12:51:57.019Z,4.90
2023-05-23T12:52:59.288Z,3.90
2023-05-23T12:54:02.226Z,4.00
2023-05-23T12:55:05.276Z,4.00
2023-05-23T12:56:09.629Z,3.00
2023-05-23T12:57:11.962Z,3.70
2023-05-23T12:58:14.256Z,3.50
2023-05-23T12:59:16.484Z,3.70
2023-05-23T13:00:20.055Z,3.50
2023-05-23T13:01:22.428Z,3.60
2023-05-23T13:02:24.924Z,2.80
2023-05-23T13:03:27.849Z,3.50
2023-05-23T13:04:32.273Z,4.73
2023-05-23T13:05:34.528Z,5.20
2023-05-23T13:06:36.874Z,3.70
2023-05-23T13:07:39.162Z,4.60
2023-05-23T13:08:41.941Z,4.30
2023-05-23T13:09:44.036Z,4.20
2023-05-23T13:10:46.486Z,4.70
2023-05-23T13:11:49.293Z,4.40
2023-05-23T13:12:51.468Z,3.60
2023-05-23T13:13:53.867Z,4.90
2023-05-23T13:14:56.166Z,4.00
2023-05-23T13:15:58.324Z,5.30
2023-05-23T13:17:01.256Z,4.10
2023-05-23T13:18:03.835Z,5.70
2023-05-23T13:19:06.123Z,4.00
2023-05-23T13:20:11.122Z,4.55
2023-05-23T13:21:13.610Z,4.60
2023-05-23T13:22:16.392Z,2.60
2023-05-23T13:23:18.668Z,4.00
2023-05-23T13:24:21.057Z,4.20
2023-05-23T13:25:23.948Z,5.20
2023-05-23T13:26:26.573Z,4.40
2023-05-23T13:27:28.824Z,5.50
2023-05-23T13:28:32.811Z,4.00
2023-05-23T13:29:35.141Z,3.70
2023-05-23T13:30:38.594Z,4.30
2023-05-23T13:31:41.490Z,6.30
2023-05-23T13:32:44.574Z,7.70
2023-05-23T13:33:46.939Z,8.27
2023-05-23T13:34:49.237Z,6.80
2023-05-23T13:35:51.413Z,5.90
2023-05-23T13:36:54.928Z,7.30
2023-05-23T13:37:57.307Z,4.70
2023-05-23T13:39:00.357Z,4.10
2023-05-23T13:40:03.456Z,5.60
2023-05-23T13:41:05.758Z,5.20
2023-05-23T13:42:08.181Z,3.50
2023-05-23T13:43:10.917Z,5.20
2023-05-23T13:44:14.070Z,5.18
2023-05-23T13:45:16.625Z,4.70
2023-05-23T13:46:19.429Z,6.00
2023-05-23T13:47:21.715Z,6.50
2023-05-23T13:48:23.872Z,6.70
2023-05-23T13:49:25.928Z,7.67
2023-05-23T13:50:28.742Z,7.40
2023-05-23T13:51:30.905Z,8.10
2023-05-23T13:52:33.804Z,10.50
2023-05-23T13:53:36.725Z,13.36
2023-05-23T13:54:39.536Z,14.27
2023-05-23T13:55:42.463Z,14.18
2023-05-23T13:56:45.156Z,17.55
2023-05-23T13:57:48.020Z,14.60
2023-05-23T13:58:50.872Z,13.64
2023-05-23T13:59:52.960Z,14.30
2023-05-23T14:00:55.375Z,9.50
2023-05-23T14:01:57.915Z,9.10
2023-05-23T14:03:00.119Z,10.10
2023-05-23T14:04:03.536Z,7.90
2023-05-23T14:05:07.001Z,7.80
2023-05-23T14:06:10.006Z,7.40
2023-05-23T14:07:12.254Z,6.80
2023-05-23T14:08:14.674Z,6.20
2023-05-23T14:09:17.380Z,7.10
2023-05-23T14:10:20.954Z,6.00
2023-05-23T14:11:23.512Z,6.70
2023-05-23T14:12:25.797Z,5.50
2023-05-23T14:13:28.001Z,5.90
2023-05-23T14:14:30.274Z,4.70
2023-05-23T14:15:42.899Z,4.80
2023-05-23T14:16:52.087Z,5.20
2023-05-23T14:17:55.690Z,5.20
2023-05-23T14:18:59.193Z,5.60
2023-05-23T14:20:04.698Z,4.00
2023-05-23T14:21:08.855Z,5.60
2023-05-23T14:22:17.756Z,3.70
2023-05-23T14:23:24.187Z,5.00
2023-05-23T14:24:29.439Z,4.70
2023-05-23T14:25:36.446Z,4.40
2023-05-23T14:28:05.823Z,4.60
2023-05-23T14:29:08.634Z,4.20
2023-05-23T14:30:15.426Z,4.00